createdAt,value
2018-11-10T00:00:56.277Z,4.00
2018-11-10T00:01:56.271Z,4.00
2018-11-10T00:02:56.265Z,4.00
2018-11-10T00:03:56.258Z,4.00
2018-11-10T00:04:56.252Z,4.00
2018-11-10T00:05:56.247Z,4.00
2018-11-10T00:06:56.245Z,4.00
2018-11-10T00:07:56.264Z,4.00
2018-11-10T00:08:56.228Z,4.00
2018-11-10T00:09:56.239Z,4.00
2018-11-10T00:10:56.216Z,4.00
2018-11-10T00:11:56.209Z,4.00
2018-11-10T00:12:56.206Z,4.00
2018-11-10T00:13:56.201Z,4.00
2018-11-10T00:14:56.194Z,4.00
2018-11-10T00:15:56.195Z,4.00
2018-11-10T00:16:56.179Z,4.00
2018-11-10T00:17:56.175Z,4.00
2018-11-10T00:18:56.167Z,4.00
2018-11-10T00:19:56.167Z,4.00
2018-11-10T00:20:56.158Z,4.00
2018-11-10T00:21:56.158Z,4.00
2018-11-10T00:22:56.165Z,4.00
2018-11-10T00:23:56.136Z,4.00
2018-11-10T00:24:56.130Z,4.00
2018-11-10T00:25:56.124Z,4.00
2018-11-10T00:26:56.192Z,4.00
2018-11-10T00:27:56.111Z,4.00
2018-11-10T00:28:56.105Z,4.00
2018-11-10T00:29:56.097Z,4.00
2018-11-10T00:30:56.094Z,4.00
2018-11-10T00:31:56.110Z,4.00
2018-11-10T00:32:56.079Z,4.00
2018-11-10T00:33:56.078Z,4.00
2018-11-10T00:34:56.068Z,4.00
2018-11-10T00:35:56.062Z,4.00
2018-11-10T00:36:56.052Z,4.00
2018-11-10T00:37:56.051Z,4.00
2018-11-10T00:38:56.045Z,4.00
2018-11-10T00:39:56.036Z,4.00
2018-11-10T00:40:56.028Z,4.00
2018-11-10T00:41:56.026Z,4.00
2018-11-10T00:42:56.016Z,4.00
2018-11-10T00:43:56.012Z,4.00
2018-11-10T00:44:56.003Z,4.00
2018-11-10T00:45:56.033Z,4.00
2018-11-10T00:46:55.992Z,4.00
2018-11-10T00:47:55.989Z,4.00
2018-11-10T00:48:55.988Z,4.00
2018-11-10T00:49:55.973Z,4.00
2018-11-10T00:50:55.966Z,4.00
2018-11-10T00:51:55.962Z,4.00
2018-11-10T00:52:55.952Z,4.00
2018-11-10T00:53:55.949Z,4.00
2018-11-10T00:54:55.940Z,8.00
2018-11-10T00:55:55.936Z,4.00
2018-11-10T00:56:55.931Z,4.00
2018-11-10T00:57:55.917Z,4.00
2018-11-10T00:58:55.917Z,4.00
2018-11-10T00:59:55.911Z,4.00
2018-11-10T01:00:55.908Z,4.00
2018-11-10T01:01:55.899Z,4.00
2018-11-10T01:02:55.896Z,8.00
2018-11-10T01:03:55.885Z,4.00
2018-11-10T01:04:55.887Z,4.00
2018-11-10T01:05:55.871Z,4.00
2018-11-10T01:06:55.868Z,4.00
2018-11-10T01:07:55.895Z,4.00
2018-11-10T01:08:55.855Z,4.00
2018-11-10T01:09:55.853Z,4.00
2018-11-10T01:10:55.840Z,4.00
2018-11-10T01:11:55.836Z,4.00
2018-11-10T01:12:55.830Z,4.00
2018-11-10T01:13:55.820Z,4.00
2018-11-10T01:14:55.817Z,4.00
2018-11-10T01:15:55.813Z,8.00
2018-11-10T01:16:55.808Z,4.00
2018-11-10T01:17:55.799Z,8.00
2018-11-10T01:18:55.796Z,4.00
2018-11-10T01:19:55.788Z,4.00
2018-11-10T01:20:55.778Z,4.00
2018-11-10T01:21:55.772Z,4.00
2018-11-10T01:22:55.766Z,4.00
2018-11-10T01:23:55.762Z,4.00
2018-11-10T01:24:55.756Z,4.00
2018-11-10T01:25:55.749Z,4.00
2018-11-10T01:26:55.745Z,4.00
2018-11-10T01:27:55.882Z,4.00
2018-11-10T01:28:55.734Z,4.00
2018-11-10T01:29:55.723Z,8.00
2018-11-10T01:30:55.719Z,4.00
2018-11-10T01:31:55.711Z,4.00
2018-11-10T01:32:55.705Z,4.00
2018-11-10T01:33:55.700Z,4.00
2018-11-10T01:34:55.694Z,4.00
2018-11-10T01:35:55.687Z,4.00
2018-11-10T01:36:55.681Z,4.00
2018-11-10T01:37:55.674Z,4.00
2018-11-10T01:38:55.670Z,4.00
2018-11-10T01:39:55.664Z,4.00
2018-11-10T01:40:55.655Z,4.00
2018-11-10T01:41:55.648Z,4.00
2018-11-10T01:42:55.645Z,4.00
2018-11-10T01:43:55.636Z,4.00
2018-11-10T01:44:55.629Z,4.00
2018-11-10T01:45:55.625Z,4.00
2018-11-10T01:46:55.617Z,4.00
2018-11-10T01:47:55.613Z,4.00
2018-11-10T01:48:55.606Z,4.00
2018-11-10T01:49:55.599Z,4.00
2018-11-10T01:50:55.612Z,4.00
2018-11-10T01:51:55.586Z,4.00
2018-11-10T01:52:55.579Z,4.00
2018-11-10T01:53:55.579Z,4.00
2018-11-10T01:54:55.569Z,4.00
2018-11-10T01:55:55.565Z,4.00
2018-11-10T01:56:55.556Z,4.00
2018-11-10T01:57:55.549Z,4.00
2018-11-10T01:58:55.543Z,4.00
2018-11-10T01:59:55.538Z,4.00
2018-11-10T02:00:55.532Z,4.00
2018-11-10T02:01:55.533Z,4.00
2018-11-10T02:02:55.521Z,4.00
2018-11-10T02:03:55.514Z,4.00
2018-11-10T02:04:55.507Z,4.00
2018-11-10T02:05:55.498Z,4.00
2018-11-10T02:06:55.496Z,4.00
2018-11-10T02:07:55.487Z,4.00
2018-11-10T02:08:55.482Z,4.00
2018-11-10T02:09:55.474Z,4.00
2018-11-10T02:10:55.469Z,4.00
2018-11-10T02:11:55.462Z,4.00
2018-11-10T02:12:55.457Z,4.00
2018-11-10T02:13:55.449Z,4.00
2018-11-10T02:14:55.443Z,4.00
2018-11-10T02:15:55.448Z,4.00
2018-11-10T02:16:55.431Z,4.00
2018-11-10T02:17:55.429Z,4.00
2018-11-10T02:18:55.419Z,4.00
2018-11-10T02:19:55.411Z,4.00
2018-11-10T02:20:55.418Z,4.00
2018-11-10T02:21:55.402Z,4.00
2018-11-10T02:22:55.397Z,4.00
2018-11-10T02:23:55.390Z,4.00
2018-11-10T02:24:55.381Z,4.00
2018-11-10T02:25:55.378Z,4.00
2018-11-10T02:26:55.370Z,4.00
2018-11-10T02:27:55.365Z,4.00
2018-11-10T02:28:55.356Z,4.00
2018-11-10T02:29:55.397Z,4.00
2018-11-10T02:30:55.364Z,4.00
2018-11-10T02:31:55.340Z,4.00
2018-11-10T02:32:55.331Z,4.00
2018-11-10T02:33:55.332Z,4.00
2018-11-10T02:34:55.318Z,4.00
2018-11-10T02:35:55.313Z,4.00
2018-11-10T02:36:55.307Z,4.00
2018-11-10T02:37:55.296Z,4.00
2018-11-10T02:38:55.293Z,4.00
2018-11-10T02:39:55.288Z,4.00
2018-11-10T02:40:55.285Z,4.00
2018-11-10T02:41:55.277Z,4.00
2018-11-10T02:42:55.267Z,4.00
2018-11-10T02:43:55.265Z,4.00
2018-11-10T02:44:55.254Z,4.00
2018-11-10T02:45:55.253Z,4.00
2018-11-10T02:46:55.238Z,4.00
2018-11-10T02:47:55.237Z,4.00
2018-11-10T02:48:55.230Z,4.00
2018-11-10T02:49:55.224Z,4.00
2018-11-10T02:50:55.216Z,4.00
2018-11-10T02:51:55.212Z,4.00
2018-11-10T02:52:55.209Z,4.00
2018-11-10T02:53:55.200Z,4.00
2018-11-10T02:54:55.189Z,4.00
2018-11-10T02:55:55.189Z,4.00
2018-11-10T02:56:55.180Z,4.00
2018-11-10T02:57:55.172Z,4.00
2018-11-10T02:58:55.167Z,4.00
2018-11-10T02:59:55.160Z,4.00
2018-11-10T03:00:55.154Z,4.00
2018-11-10T03:01:55.147Z,4.00
2018-11-10T03:02:55.148Z,4.00
2018-11-10T03:03:55.141Z,4.00
2018-11-10T03:04:55.131Z,4.00
2018-11-10T03:05:55.120Z,4.00
2018-11-10T03:06:55.114Z,4.00
2018-11-10T03:07:55.106Z,4.00
2018-11-10T03:08:55.100Z,4.00
2018-11-10T03:09:55.093Z,4.00
2018-11-10T03:10:55.137Z,4.00
2018-11-10T03:11:55.083Z,4.00
2018-11-10T03:12:55.077Z,4.00
2018-11-10T03:13:55.069Z,4.00
2018-11-10T03:14:55.062Z,4.00
2018-11-10T03:15:55.052Z,4.00
2018-11-10T03:16:55.051Z,4.00
2018-11-10T03:17:55.042Z,4.00
2018-11-10T03:18:55.035Z,4.00
2018-11-10T03:19:55.029Z,4.00
2018-11-10T03:20:55.021Z,4.00
2018-11-10T03:21:55.016Z,4.00
2018-11-10T03:22:55.008Z,4.00
2018-11-10T03:23:55.002Z,4.00
2018-11-10T03:24:54.997Z,4.00
2018-11-10T03:25:54.990Z,4.00
2018-11-10T03:26:54.984Z,4.00
2018-11-10T03:27:54.978Z,4.00
2018-11-10T03:28:54.970Z,4.00
2018-11-10T03:29:54.964Z,4.00
2018-11-10T03:30:54.956Z,4.00
2018-11-10T03:31:54.961Z,4.00
2018-11-10T03:32:54.946Z,4.00
2018-11-10T03:33:54.942Z,4.00
2018-11-10T03:34:54.930Z,4.00
2018-11-10T03:35:54.923Z,4.00
2018-11-10T03:36:54.915Z,4.00
2018-11-10T03:37:54.910Z,4.00
2018-11-10T03:38:54.902Z,4.00
2018-11-10T03:39:54.896Z,4.00
2018-11-10T03:40:54.891Z,4.00
2018-11-10T03:41:54.883Z,4.00
2018-11-10T03:42:54.875Z,4.00
2018-11-10T03:43:54.871Z,4.00
2018-11-10T03:44:54.864Z,4.00
2018-11-10T03:45:54.871Z,4.00
2018-11-10T03:46:54.875Z,4.00
2018-11-10T03:47:54.849Z,4.00
2018-11-10T03:48:54.905Z,4.00
2018-11-10T03:49:54.829Z,4.00
2018-11-10T03:50:54.823Z,4.00
2018-11-10T03:51:54.820Z,4.00
2018-11-10T03:52:54.815Z,4.00
2018-11-10T03:53:54.803Z,4.00
2018-11-10T03:54:54.798Z,4.00
2018-11-10T03:55:54.789Z,4.00
2018-11-10T03:56:54.783Z,4.00
2018-11-10T03:57:54.780Z,4.00
2018-11-10T03:58:54.783Z,4.00
2018-11-10T03:59:54.764Z,4.00
2018-11-10T04:00:54.760Z,4.00
2018-11-10T04:01:54.750Z,4.00
2018-11-10T04:02:54.742Z,4.00
2018-11-10T04:03:54.738Z,4.00
2018-11-10T04:04:54.730Z,4.00
2018-11-10T04:05:54.726Z,4.00
2018-11-10T04:06:54.713Z,4.00
2018-11-10T04:07:54.711Z,4.00
2018-11-10T04:08:54.700Z,4.00
2018-11-10T04:09:54.695Z,4.00
2018-11-10T04:10:54.689Z,4.00
2018-11-10T04:11:54.682Z,4.00
2018-11-10T04:12:54.674Z,4.00
2018-11-10T04:13:54.668Z,4.00
2018-11-10T04:14:54.656Z,4.00
2018-11-10T04:15:54.655Z,4.00
2018-11-10T04:16:54.648Z,4.00
2018-11-10T04:17:54.644Z,4.00
2018-11-10T04:18:54.630Z,4.00
2018-11-10T04:19:54.627Z,4.00
2018-11-10T04:20:54.627Z,4.00
2018-11-10T04:21:54.614Z,4.00
2018-11-10T04:22:54.606Z,4.00
2018-11-10T04:23:54.598Z,4.00
2018-11-10T04:24:54.592Z,4.00
2018-11-10T04:25:54.587Z,4.00
2018-11-10T04:26:54.581Z,4.00
2018-11-10T04:27:54.573Z,4.00
2018-11-10T04:28:54.567Z,4.00
2018-11-10T04:29:54.558Z,4.00
2018-11-10T04:30:54.552Z,4.00
2018-11-10T04:31:54.546Z,4.00
2018-11-10T04:32:54.538Z,4.00
2018-11-10T04:33:54.531Z,4.00
2018-11-10T04:34:54.530Z,4.00
2018-11-10T04:35:54.521Z,4.00
2018-11-10T04:36:54.530Z,4.00
2018-11-10T04:37:54.504Z,4.00
2018-11-10T04:38:54.500Z,4.00
2018-11-10T04:39:54.493Z,4.00
2018-11-10T04:40:54.487Z,4.00
2018-11-10T04:41:54.480Z,4.00
2018-11-10T04:42:54.472Z,4.00
2018-11-10T04:43:54.465Z,4.00
2018-11-10T04:44:54.456Z,4.00
2018-11-10T04:45:54.452Z,4.00
2018-11-10T04:46:54.444Z,4.00
2018-11-10T04:47:54.439Z,4.00
2018-11-10T04:48:54.432Z,4.00
2018-11-10T04:49:54.486Z,4.00
2018-11-10T04:50:54.418Z,4.00
2018-11-10T04:51:54.412Z,4.00
2018-11-10T04:52:54.404Z,4.00
2018-11-10T04:53:54.400Z,4.00
2018-11-10T04:54:54.396Z,4.00
2018-11-10T04:55:54.385Z,4.00
2018-11-10T04:56:54.376Z,4.00
2018-11-10T04:57:54.373Z,4.00
2018-11-10T04:58:54.362Z,4.00
2018-11-10T04:59:54.358Z,4.00
2018-11-10T05:00:54.349Z,4.00
2018-11-10T05:01:54.345Z,4.00
2018-11-10T05:02:54.335Z,4.00
2018-11-10T05:03:54.332Z,4.00
2018-11-10T05:04:54.325Z,4.00
2018-11-10T05:05:54.317Z,4.00
2018-11-10T05:06:54.306Z,4.00
2018-11-10T05:07:54.303Z,4.00
2018-11-10T05:08:54.314Z,4.00
2018-11-10T05:09:54.294Z,4.00
2018-11-10T05:10:54.283Z,4.00
2018-11-10T05:11:54.277Z,4.00
2018-11-10T05:12:54.269Z,4.00
2018-11-10T05:13:54.263Z,4.00
2018-11-10T05:14:54.259Z,4.00
2018-11-10T05:15:54.248Z,4.00
2018-11-10T05:16:54.242Z,4.00
2018-11-10T05:17:54.241Z,4.00
2018-11-10T05:18:54.230Z,4.00
2018-11-10T05:19:54.223Z,4.00
2018-11-10T05:20:54.216Z,4.00
2018-11-10T05:21:54.214Z,4.00
2018-11-10T05:22:54.201Z,4.00
2018-11-10T05:23:54.197Z,4.00
2018-11-10T05:24:54.191Z,4.00
2018-11-10T05:25:54.184Z,4.00
2018-11-10T05:26:54.175Z,4.00
2018-11-10T05:27:54.171Z,4.00
2018-11-10T05:28:54.164Z,4.00
2018-11-10T05:29:54.156Z,4.00
2018-11-10T05:30:54.177Z,4.00
2018-11-10T05:31:54.143Z,4.00
2018-11-10T05:32:54.136Z,4.00
2018-11-10T05:33:54.130Z,4.00
2018-11-10T05:34:54.130Z,4.00
2018-11-10T05:35:54.124Z,4.00
2018-11-10T05:36:54.126Z,4.00
2018-11-10T05:37:54.108Z,4.00
2018-11-10T05:38:54.113Z,4.00
2018-11-10T05:39:54.095Z,4.00
2018-11-10T05:40:54.082Z,4.00
2018-11-10T05:41:54.079Z,4.00
2018-11-10T05:42:54.071Z,4.00
2018-11-10T05:43:54.062Z,4.00
2018-11-10T05:44:54.051Z,8.00
2018-11-10T05:45:54.048Z,8.00
2018-11-10T05:46:54.050Z,8.00
2018-11-10T05:47:54.035Z,8.00
2018-11-10T05:48:54.028Z,8.00
2018-11-10T05:49:54.022Z,8.00
2018-11-10T05:50:54.021Z,8.00
2018-11-10T05:51:54.010Z,4.00
2018-11-10T05:52:54.007Z,4.00
2018-11-10T05:53:53.994Z,8.00
2018-11-10T05:54:53.988Z,8.00
2018-11-10T05:55:53.982Z,8.00
2018-11-10T05:56:54.003Z,8.00
2018-11-10T05:57:53.968Z,8.00
2018-11-10T05:58:53.961Z,8.00
2018-11-10T05:59:53.956Z,8.00
2018-11-10T06:00:53.949Z,4.00
2018-11-10T06:01:53.989Z,8.00
2018-11-10T06:02:53.936Z,8.00
2018-11-10T06:03:53.928Z,8.00
2018-11-10T06:04:53.927Z,12.00
2018-11-10T06:05:53.915Z,16.00
2018-11-10T06:06:53.910Z,16.00
2018-11-10T06:07:53.906Z,20.00
2018-11-10T06:08:53.895Z,20.00
2018-11-10T06:09:54.007Z,28.00
2018-11-10T06:10:53.883Z,28.00
2018-11-10T06:11:53.877Z,32.00
2018-11-10T06:12:53.881Z,40.00
2018-11-10T06:13:53.862Z,40.00
2018-11-10T06:14:53.854Z,48.00
2018-11-10T06:15:53.857Z,48.00
2018-11-10T06:16:53.844Z,52.00
2018-11-10T06:17:53.835Z,56.00
2018-11-10T06:18:53.907Z,56.00
2018-11-10T06:19:53.827Z,64.00
2018-11-10T06:20:53.815Z,72.00
2018-11-10T06:21:53.809Z,76.00
2018-11-10T06:22:53.804Z,80.00
2018-11-10T06:23:53.800Z,88.00
2018-11-10T06:24:53.791Z,96.00
2018-11-10T06:25:53.791Z,100.00
2018-11-10T06:26:53.778Z,108.00
2018-11-10T06:27:53.772Z,116.00
2018-11-10T06:28:53.767Z,120.00
2018-11-10T06:29:53.760Z,128.00
2018-11-10T06:30:53.755Z,140.00
2018-11-10T06:31:53.745Z,148.00
2018-11-10T06:32:53.738Z,156.00
2018-11-10T06:33:53.732Z,164.00
2018-11-10T06:34:53.729Z,176.00
2018-11-10T06:35:53.721Z,184.00
2018-11-10T06:36:53.711Z,196.00
2018-11-10T06:37:53.706Z,200.00
2018-11-10T06:38:53.701Z,212.00
2018-11-10T06:39:53.693Z,220.00
2018-11-10T06:40:53.686Z,228.00
2018-11-10T06:41:53.681Z,240.00
2018-11-10T06:42:53.674Z,248.00
2018-11-10T06:43:53.667Z,260.00
2018-11-10T06:44:53.659Z,272.00
2018-11-10T06:45:53.650Z,280.00
2018-11-10T06:46:53.702Z,292.00
2018-11-10T06:47:53.641Z,304.00
2018-11-10T06:48:53.634Z,316.00
2018-11-10T06:49:53.628Z,324.00
2018-11-10T06:50:53.626Z,336.00
2018-11-10T06:51:53.614Z,348.00
2018-11-10T06:52:53.651Z,356.00
2018-11-10T06:53:53.601Z,368.00
2018-11-10T06:54:53.595Z,376.00
2018-11-10T06:55:53.590Z,388.00
2018-11-10T06:56:53.601Z,400.00
2018-11-10T06:57:53.577Z,412.00
2018-11-10T06:58:53.565Z,420.00
2018-11-10T06:59:53.563Z,428.00
2018-11-10T07:00:53.557Z,444.00
2018-11-10T07:01:53.555Z,452.00
2018-11-10T07:02:53.546Z,464.00
2018-11-10T07:03:53.538Z,476.00
2018-11-10T07:04:53.531Z,484.00
2018-11-10T07:05:53.525Z,496.00
2018-11-10T07:06:53.517Z,508.00
2018-11-10T07:07:53.511Z,512.00
2018-11-10T07:08:53.504Z,524.00
2018-11-10T07:09:53.501Z,532.00
2018-11-10T07:10:53.494Z,540.00
2018-11-10T07:11:53.485Z,540.00
2018-11-10T07:12:53.478Z,548.00
2018-11-10T07:13:53.468Z,552.00
2018-11-10T07:14:53.463Z,556.00
2018-11-10T07:15:53.471Z,560.00
2018-11-10T07:16:53.457Z,560.00
2018-11-10T07:17:53.504Z,564.00
2018-11-10T07:18:53.445Z,572.00
2018-11-10T07:19:53.433Z,576.00
2018-11-10T07:20:53.428Z,588.00
2018-11-10T07:21:53.423Z,588.00
2018-11-10T07:22:53.422Z,596.00
2018-11-10T07:23:53.410Z,596.00
2018-11-10T07:24:53.453Z,600.00
2018-11-10T07:25:53.396Z,604.00
2018-11-10T07:26:53.392Z,604.00
2018-11-10T07:27:53.386Z,604.00
2018-11-10T07:28:53.377Z,608.00
2018-11-10T07:29:53.370Z,612.00
2018-11-10T07:30:53.364Z,616.00
2018-11-10T07:31:53.370Z,624.00
2018-11-10T07:32:53.350Z,624.00
2018-11-10T07:33:53.347Z,632.00
2018-11-10T07:34:53.337Z,632.00
2018-11-10T07:35:53.336Z,640.00
2018-11-10T07:36:53.327Z,644.00
2018-11-10T07:37:53.325Z,648.00
2018-11-10T07:38:53.355Z,648.00
2018-11-10T07:39:53.323Z,652.00
2018-11-10T07:40:53.315Z,652.00
2018-11-10T07:41:53.296Z,652.00
2018-11-10T07:42:53.325Z,648.00
2018-11-10T07:43:53.283Z,652.00
2018-11-10T07:44:53.279Z,656.00
2018-11-10T07:45:53.271Z,660.00
2018-11-10T07:46:53.262Z,664.00
2018-11-10T07:47:53.258Z,676.00
2018-11-10T07:48:53.250Z,684.00
2018-11-10T07:49:53.250Z,696.00
2018-11-10T07:50:53.237Z,700.00
2018-11-10T07:51:53.234Z,704.00
2018-11-10T07:52:53.225Z,712.00
2018-11-10T07:53:53.220Z,720.00
2018-11-10T07:54:53.214Z,728.00
2018-11-10T07:55:53.217Z,732.00
2018-11-10T07:56:53.202Z,740.00
2018-11-10T07:57:53.199Z,740.00
2018-11-10T07:58:53.190Z,748.00
2018-11-10T07:59:53.183Z,748.00
2018-11-10T08:00:53.178Z,752.00
2018-11-10T08:01:53.173Z,764.00
2018-11-10T08:02:53.167Z,776.00
2018-11-10T08:03:53.160Z,792.00
2018-11-10T08:04:53.159Z,800.00
2018-11-10T08:05:53.147Z,812.00
2018-11-10T08:06:53.142Z,820.00
2018-11-10T08:07:53.136Z,824.00
2018-11-10T08:08:53.132Z,828.00
2018-11-10T08:09:53.121Z,832.00
2018-11-10T08:10:53.122Z,844.00
2018-11-10T08:11:53.182Z,848.00
2018-11-10T08:12:53.106Z,860.00
2018-11-10T08:13:53.099Z,872.00
2018-11-10T08:14:53.094Z,872.00
2018-11-10T08:15:53.086Z,876.00
2018-11-10T08:16:53.082Z,876.00
2018-11-10T08:17:53.076Z,868.00
2018-11-10T08:18:53.069Z,868.00
2018-11-10T08:19:53.065Z,872.00
2018-11-10T08:20:53.056Z,876.00
2018-11-10T08:21:53.052Z,884.00
2018-11-10T08:22:53.046Z,896.00
2018-11-10T08:23:53.038Z,908.00
2018-11-10T08:24:53.062Z,904.00
2018-11-10T08:25:53.052Z,904.00
2018-11-10T08:26:53.021Z,912.00
2018-11-10T08:27:53.020Z,916.00
2018-11-10T08:28:53.011Z,920.00
2018-11-10T08:29:53.005Z,928.00
2018-11-10T08:30:52.999Z,928.00
2018-11-10T08:31:52.992Z,936.00
2018-11-10T08:32:52.987Z,948.00
2018-11-10T08:33:52.979Z,952.00
2018-11-10T08:34:52.976Z,952.00
2018-11-10T08:35:52.970Z,968.00
2018-11-10T08:36:52.963Z,980.00
2018-11-10T08:37:52.956Z,988.00
2018-11-10T08:38:52.952Z,1004.00
2018-11-10T08:39:52.948Z,1004.00
2018-11-10T08:40:52.941Z,1000.00
2018-11-10T08:41:52.933Z,1000.00
2018-11-10T08:42:52.930Z,1004.00
2018-11-10T08:43:52.930Z,1004.00
2018-11-10T08:44:52.925Z,1008.00
2018-11-10T08:45:52.915Z,1008.00
2018-11-10T08:46:52.907Z,1008.00
2018-11-10T08:47:52.899Z,1012.00
2018-11-10T08:48:52.896Z,1008.00
2018-11-10T08:49:52.912Z,1000.00
2018-11-10T08:50:52.883Z,1004.00
2018-11-10T08:51:52.880Z,1012.00
2018-11-10T08:52:52.874Z,1008.00
2018-11-10T08:53:52.865Z,1016.00
2018-11-10T08:54:52.862Z,1024.00
2018-11-10T08:55:52.856Z,1036.00
2018-11-10T08:56:52.849Z,1040.00
2018-11-10T08:57:52.846Z,1060.00
2018-11-10T08:58:52.847Z,1072.00
2018-11-10T08:59:52.840Z,1080.00
2018-11-10T09:00:52.828Z,1084.00
2018-11-10T09:01:52.822Z,1096.00
2018-11-10T09:02:52.855Z,1120.00
2018-11-10T09:03:52.810Z,1144.00
2018-11-10T09:04:52.810Z,1228.00
2018-11-10T09:05:52.801Z,1432.00
2018-11-10T09:06:52.796Z,1604.00
2018-11-10T09:07:52.790Z,1680.00
2018-11-10T09:08:52.783Z,1712.00
2018-11-10T09:09:52.864Z,1692.00
2018-11-10T09:10:52.774Z,1672.00
2018-11-10T09:11:52.767Z,1628.00
2018-11-10T09:12:52.764Z,1600.00
2018-11-10T09:13:52.780Z,1500.00
2018-11-10T09:14:52.792Z,1372.00
2018-11-10T09:15:52.776Z,1420.00
2018-11-10T09:16:52.744Z,1596.00
2018-11-10T09:17:52.781Z,1788.00
2018-11-10T09:18:52.731Z,1968.00
2018-11-10T09:19:52.735Z,2028.00
2018-11-10T09:20:52.717Z,2032.00
2018-11-10T09:21:52.716Z,1952.00
2018-11-10T09:22:52.712Z,1860.00
2018-11-10T09:23:52.711Z,1732.00
2018-11-10T09:24:52.708Z,1576.00
2018-11-10T09:25:52.696Z,1440.00
2018-11-10T09:26:52.691Z,1356.00
2018-11-10T09:27:52.683Z,1288.00
2018-11-10T09:28:52.678Z,1240.00
2018-11-10T09:29:52.679Z,1212.00
2018-11-10T09:30:52.709Z,1204.00
2018-11-10T09:31:52.668Z,1244.00
2018-11-10T09:32:52.664Z,1284.00
2018-11-10T09:33:52.662Z,1308.00
2018-11-10T09:34:52.650Z,1340.00
2018-11-10T09:35:52.657Z,1400.00
2018-11-10T09:36:52.645Z,1480.00
2018-11-10T09:37:52.642Z,1524.00
2018-11-10T09:38:52.635Z,1548.00
2018-11-10T09:39:52.631Z,1540.00
2018-11-10T09:40:52.628Z,1536.00
2018-11-10T09:41:52.679Z,1528.00
2018-11-10T09:42:52.620Z,1516.00
2018-11-10T09:43:52.613Z,1500.00
2018-11-10T09:44:52.608Z,1492.00
2018-11-10T09:45:52.609Z,1476.00
2018-11-10T09:46:52.600Z,1460.00
2018-11-10T09:47:52.595Z,1444.00
2018-11-10T09:48:52.594Z,1400.00
2018-11-10T09:49:52.627Z,1396.00
2018-11-10T09:50:52.620Z,1416.00
2018-11-10T09:51:52.580Z,1412.00
2018-11-10T09:52:52.584Z,1364.00
2018-11-10T09:53:52.592Z,1332.00
2018-11-10T09:54:52.583Z,1300.00
2018-11-10T09:55:52.562Z,1304.00
2018-11-10T09:56:52.556Z,1360.00
2018-11-10T09:57:52.567Z,1440.00
2018-11-10T09:58:52.553Z,1520.00
2018-11-10T09:59:52.544Z,1524.00
2018-11-10T10:00:52.679Z,1504.00
2018-11-10T10:01:52.718Z,1488.00
2018-11-10T10:02:52.720Z,1484.00
2018-11-10T10:03:52.525Z,1480.00
2018-11-10T10:04:52.523Z,1472.00
2018-11-10T10:05:52.520Z,1464.00
2018-11-10T10:06:52.514Z,1468.00
2018-11-10T10:07:52.518Z,1464.00
2018-11-10T10:08:52.575Z,1464.00
2018-11-10T10:09:52.506Z,1464.00
2018-11-10T10:10:52.527Z,1452.00
2018-11-10T10:11:52.493Z,1444.00
2018-11-10T10:12:52.491Z,1448.00
2018-11-10T10:13:52.485Z,1452.00
2018-11-10T10:14:52.479Z,1452.00
2018-11-10T10:15:52.514Z,1468.00
2018-11-10T10:16:52.473Z,1480.00
2018-11-10T10:17:52.470Z,1500.00
2018-11-10T10:18:52.466Z,1504.00
2018-11-10T10:19:52.469Z,1516.00
2018-11-10T10:20:52.461Z,1524.00
2018-11-10T10:21:52.520Z,1536.00
2018-11-10T10:22:52.448Z,1536.00
2018-11-10T10:23:52.447Z,1548.00
2018-11-10T10:24:52.439Z,1552.00
2018-11-10T10:25:52.436Z,1556.00
2018-11-10T10:26:52.432Z,1552.00
2018-11-10T10:27:52.430Z,1556.00
2018-11-10T10:28:52.448Z,1548.00
2018-11-10T10:29:52.420Z,1544.00
2018-11-10T10:30:52.417Z,1556.00
2018-11-10T10:31:52.413Z,1560.00
2018-11-10T10:32:52.407Z,1568.00
2018-11-10T10:33:52.422Z,1580.00
2018-11-10T10:34:52.425Z,1596.00
2018-11-10T10:35:52.398Z,1596.00
2018-11-10T10:36:52.395Z,1584.00
2018-11-10T10:37:52.388Z,1572.00
2018-11-10T10:38:52.386Z,1576.00
2018-11-10T10:39:52.386Z,1552.00
2018-11-10T10:40:52.376Z,1544.00
2018-11-10T10:41:52.377Z,1540.00
2018-11-10T10:42:52.398Z,1560.00
2018-11-10T10:43:52.374Z,1584.00
2018-11-10T10:44:52.363Z,1592.00
2018-11-10T10:45:52.360Z,1596.00
2018-11-10T10:46:52.417Z,1612.00
2018-11-10T10:47:52.354Z,1640.00
2018-11-10T10:48:52.507Z,1640.00
2018-11-10T10:49:52.346Z,1620.00
2018-11-10T10:50:52.340Z,1636.00
2018-11-10T10:51:52.340Z,1652.00
2018-11-10T10:52:52.336Z,1644.00
2018-11-10T10:53:52.333Z,1640.00
2018-11-10T10:54:52.328Z,1656.00
2018-11-10T10:55:52.388Z,1664.00
2018-11-10T10:56:52.324Z,1672.00
2018-11-10T10:57:52.318Z,1680.00
2018-11-10T10:58:52.314Z,1744.00
2018-11-10T10:59:52.310Z,1808.00
2018-11-10T11:00:52.314Z,1844.00
2018-11-10T11:01:52.302Z,1856.00
2018-11-10T11:02:52.350Z,1856.00
2018-11-10T11:03:52.299Z,1836.00
2018-11-10T11:04:52.293Z,1804.00
2018-11-10T11:05:52.290Z,1784.00
2018-11-10T11:06:52.286Z,1776.00
2018-11-10T11:07:52.283Z,1752.00
2018-11-10T11:08:52.332Z,1744.00
2018-11-10T11:09:53.278Z,1740.00
2018-11-10T11:10:52.281Z,1752.00
2018-11-10T11:11:52.300Z,1736.00
2018-11-10T11:12:52.269Z,1748.00
2018-11-10T11:13:52.261Z,1744.00
2018-11-10T11:14:52.259Z,1752.00
2018-11-10T11:15:52.302Z,1728.00
2018-11-10T11:16:52.253Z,1772.00
2018-11-10T11:17:52.272Z,1804.00
2018-11-10T11:18:52.269Z,1776.00
2018-11-10T11:19:52.250Z,1788.00
2018-11-10T11:20:52.238Z,1808.00
2018-11-10T11:21:52.295Z,1824.00
2018-11-10T11:22:52.237Z,1804.00
2018-11-10T11:23:52.232Z,1808.00
2018-11-10T11:24:52.227Z,1744.00
2018-11-10T11:25:52.229Z,1756.00
2018-11-10T11:26:52.217Z,1816.00
2018-11-10T11:27:52.221Z,1832.00
2018-11-10T11:28:52.227Z,1820.00
2018-11-10T11:29:52.307Z,1832.00
2018-11-10T11:30:52.308Z,1892.00
2018-11-10T11:31:52.206Z,1940.00
2018-11-10T11:32:52.205Z,1888.00
2018-11-10T11:33:52.260Z,1876.00
2018-11-10T11:34:52.209Z,1936.00
2018-11-10T11:35:52.202Z,2064.00
2018-11-10T11:36:52.238Z,2188.00
2018-11-10T11:37:52.193Z,2184.00
2018-11-10T11:38:52.188Z,2124.00
2018-11-10T11:39:52.184Z,2048.00
2018-11-10T11:40:52.185Z,1948.00
2018-11-10T11:41:52.264Z,1944.00
2018-11-10T11:42:52.176Z,2048.00
2018-11-10T11:43:52.176Z,2056.00
2018-11-10T11:44:52.170Z,1920.00
2018-11-10T11:45:52.197Z,1796.00
2018-11-10T11:46:52.178Z,1728.00
2018-11-10T11:47:52.165Z,1716.00
2018-11-10T11:48:52.159Z,1716.00
2018-11-10T11:49:52.209Z,1708.00
2018-11-10T11:50:52.161Z,1704.00
2018-11-10T11:51:52.153Z,1692.00
2018-11-10T11:52:52.177Z,1692.00
2018-11-10T11:53:52.148Z,1696.00
2018-11-10T11:54:52.146Z,1708.00
2018-11-10T11:55:52.150Z,1704.00
2018-11-10T11:56:52.144Z,1688.00
2018-11-10T11:57:52.225Z,1692.00
2018-11-10T11:58:52.135Z,1696.00
2018-11-10T11:59:52.133Z,1708.00
2018-11-10T12:00:52.129Z,1712.00
2018-11-10T12:01:52.128Z,1712.00
2018-11-10T12:02:52.126Z,1712.00
2018-11-10T12:03:52.119Z,1716.00
2018-11-10T12:04:52.121Z,1712.00
2018-11-10T12:05:52.125Z,1720.00
2018-11-10T12:06:52.116Z,1728.00
2018-11-10T12:07:52.125Z,1732.00
2018-11-10T12:08:52.262Z,1728.00
2018-11-10T12:09:52.107Z,1732.00
2018-11-10T12:10:52.106Z,1736.00
2018-11-10T12:11:52.101Z,1736.00
2018-11-10T12:12:52.100Z,1728.00
2018-11-10T12:13:52.097Z,1716.00
2018-11-10T12:14:52.097Z,1712.00
2018-11-10T12:15:52.094Z,1720.00
2018-11-10T12:16:52.208Z,1720.00
2018-11-10T12:17:52.093Z,1720.00
2018-11-10T12:18:52.089Z,1720.00
2018-11-10T12:19:52.245Z,1716.00
2018-11-10T12:20:52.149Z,1716.00
2018-11-10T12:21:52.144Z,1744.00
2018-11-10T12:22:52.075Z,1756.00
2018-11-10T12:23:52.075Z,1756.00
2018-11-10T12:24:52.072Z,1760.00
2018-11-10T12:25:52.068Z,1760.00
2018-11-10T12:26:52.121Z,1792.00
2018-11-10T12:27:52.116Z,1788.00
2018-11-10T12:28:52.062Z,1792.00
2018-11-10T12:29:52.058Z,1788.00
2018-11-10T12:30:52.066Z,1788.00
2018-11-10T12:31:52.139Z,1768.00
2018-11-10T12:32:52.757Z,1792.00
2018-11-10T12:33:52.050Z,1804.00
2018-11-10T12:34:52.053Z,1800.00
2018-11-10T12:35:52.057Z,1812.00
2018-11-10T12:36:52.048Z,1792.00
2018-11-10T12:37:52.044Z,1784.00
2018-11-10T12:38:52.145Z,1784.00
2018-11-10T12:39:52.040Z,1804.00
2018-11-10T12:40:52.825Z,1824.00
2018-11-10T12:41:52.207Z,1820.00
2018-11-10T12:42:53.987Z,1820.00
2018-11-10T12:43:52.489Z,1824.00
2018-11-10T12:44:52.401Z,1808.00